sensor_id;sensor_type;location;lat;lon;timestamp;P1;durP1;ratioP1;P2;durP2;ratioP2
1975;SDS011;988;48.016;7.800;2022-12-29T00:02:23;21.37;;;20.27;;
1975;SDS011;988;48.016;7.800;2022-12-29T00:04:49;22.83;;;21.47;;
1975;SDS011;988;48.016;7.800;2022-12-29T00:07:15;22.33;;;21.03;;
1975;SDS011;988;48.016;7.800;2022-12-29T00:09:41;23.33;;;22.13;;
1975;SDS011;988;48.016;7.800;2022-12-29T00:12:06;21.77;;;20.47;;
1975;SDS011;988;48.016;7.800;2022-12-29T00:14:32;21.90;;;20.70;;
1975;SDS011;988;48.016;7.800;2022-12-29T00:17:16;22.77;;;21.20;;
1975;SDS011;988;48.016;7.800;2022-12-29T00:19:42;22.10;;;20.60;;
1975;SDS011;988;48.016;7.800;2022-12-29T00:22:26;21.73;;;20.53;;
1975;SDS011;988;48.016;7.800;2022-12-29T00:25:10;22.25;;;20.85;;
1975;SDS011;988;48.016;7.800;2022-12-29T00:27:56;22.80;;;21.50;;
1975;SDS011;988;48.016;7.800;2022-12-29T00:30:41;20.97;;;19.93;;
1975;SDS011;988;48.016;7.800;2022-12-29T00:33:26;21.73;;;20.60;;
1975;SDS011;988;48.016;7.800;2022-12-29T00:36:17;20.83;;;19.73;;
1975;SDS011;988;48.016;7.800;2022-12-29T00:38:56;21.40;;;20.30;;
1975;SDS011;988;48.016;7.800;2022-12-29T00:41:44;21.87;;;20.67;;
1975;SDS011;988;48.016;7.800;2022-12-29T00:44:28;21.87;;;20.47;;
1975;SDS011;988;48.016;7.800;2022-12-29T00:46:53;23.23;;;21.73;;
1975;SDS011;988;48.016;7.800;2022-12-29T00:49:19;20.70;;;19.70;;
1975;SDS011;988;48.016;7.800;2022-12-29T00:51:58;22.20;;;21.00;;
1975;SDS011;988;48.016;7.800;2022-12-29T00:54:30;21.80;;;20.70;;
1975;SDS011;988;48.016;7.800;2022-12-29T00:56:57;22.80;;;21.50;;
1975;SDS011;988;48.016;7.800;2022-12-29T00:59:23;23.50;;;21.63;;
1975;SDS011;988;48.016;7.800;2022-12-29T01:01:50;21.63;;;20.53;;
1975;SDS011;988;48.016;7.800;2022-12-29T01:04:17;21.00;;;19.80;;
1975;SDS011;988;48.016;7.800;2022-12-29T01:06:42;21.73;;;20.53;;
1975;SDS011;988;48.016;7.800;2022-12-29T01:09:08;22.40;;;21.20;;
1975;SDS011;988;48.016;7.800;2022-12-29T01:11:53;21.23;;;19.93;;
1975;SDS011;988;48.016;7.800;2022-12-29T01:14:19;22.60;;;21.37;;
1975;SDS011;988;48.016;7.800;2022-12-29T01:16:45;21.97;;;20.73;;
1975;SDS011;988;48.016;7.800;2022-12-29T01:19:12;22.30;;;21.10;;
1975;SDS011;988;48.016;7.800;2022-12-29T01:21:41;21.63;;;19.70;;
1975;SDS011;988;48.016;7.800;2022-12-29T01:24:07;23.27;;;22.08;;
1975;SDS011;988;48.016;7.800;2022-12-29T01:29:29;22.20;;;20.90;;
1975;SDS011;988;48.016;7.800;2022-12-29T01:31:55;22.80;;;21.50;;
1975;SDS011;988;48.016;7.800;2022-12-29T01:34:20;22.27;;;21.10;;
1975;SDS011;988;48.016;7.800;2022-12-29T01:37:04;22.20;;;20.80;;
1975;SDS011;988;48.016;7.800;2022-12-29T01:39:30;20.97;;;19.87;;
1975;SDS011;988;48.016;7.800;2022-12-29T01:41:55;22.37;;;21.17;;
1975;SDS011;988;48.016;7.800;2022-12-29T01:44:46;20.83;;;19.63;;
1975;SDS011;988;48.016;7.800;2022-12-29T01:47:17;22.47;;;21.27;;
1975;SDS011;988;48.016;7.800;2022-12-29T01:49:53;21.93;;;20.73;;
1975;SDS011;988;48.016;7.800;2022-12-29T01:52:21;20.77;;;19.67;;
1975;SDS011;988;48.016;7.800;2022-12-29T01:54:50;22.80;;;21.50;;
1975;SDS011;988;48.016;7.800;2022-12-29T01:57:20;22.20;;;21.00;;
1975;SDS011;988;48.016;7.800;2022-12-29T01:59:54;23.00;;;21.80;;
1975;SDS011;988;48.016;7.800;2022-12-29T02:02:25;21.65;;;20.45;;
1975;SDS011;988;48.016;7.800;2022-12-29T02:04:51;21.00;;;19.85;;
1975;SDS011;988;48.016;7.800;2022-12-29T02:07:21;21.40;;;20.08;;
1975;SDS011;988;48.016;7.800;2022-12-29T02:09:50;20.33;;;19.23;;
1975;SDS011;988;48.016;7.800;2022-12-29T02:12:22;19.93;;;18.93;;
1975;SDS011;988;48.016;7.800;2022-12-29T02:14:51;20.50;;;19.40;;
1975;SDS011;988;48.016;7.800;2022-12-29T02:25:47;21.25;;;20.15;;
1975;SDS011;988;48.016;7.800;2022-12-29T02:44:50;21.15;;;19.95;;
1975;SDS011;988;48.016;7.800;2022-12-29T02:50:15;21.17;;;20.00;;
1975;SDS011;988;48.016;7.800;2022-12-29T02:52:45;19.83;;;18.80;;
1975;SDS011;988;48.016;7.800;2022-12-29T02:55:16;20.42;;;19.27;;
1975;SDS011;988;48.016;7.800;2022-12-29T02:57:41;22.27;;;20.97;;
1975;SDS011;988;48.016;7.800;2022-12-29T03:00:11;21.50;;;20.30;;
1975;SDS011;988;48.016;7.800;2022-12-29T03:10:59;21.92;;;20.48;;
1975;SDS011;988;48.016;7.800;2022-12-29T03:14:02;21.60;;;20.40;;
1975;SDS011;988;48.016;7.800;2022-12-29T03:16:57;21.92;;;20.63;;
1975;SDS011;988;48.016;7.800;2022-12-29T03:19:27;23.52;;;22.13;;
1975;SDS011;988;48.016;7.800;2022-12-29T03:24:42;23.60;;;22.20;;
1975;SDS011;988;48.016;7.800;2022-12-29T03:27:13;21.65;;;20.17;;
1975;SDS011;988;48.016;7.800;2022-12-29T03:29:46;23.58;;;22.27;;
1975;SDS011;988;48.016;7.800;2022-12-29T03:32:18;22.10;;;20.55;;
1975;SDS011;988;48.016;7.800;2022-12-29T03:34:47;21.92;;;20.73;;
1975;SDS011;988;48.016;7.800;2022-12-29T03:37:15;20.10;;;18.95;;
1975;SDS011;988;48.016;7.800;2022-12-29T03:39:45;22.08;;;20.83;;
1975;SDS011;988;48.016;7.800;2022-12-29T03:42:13;22.45;;;21.05;;
1975;SDS011;988;48.016;7.800;2022-12-29T03:44:43;21.83;;;20.52;;
1975;SDS011;988;48.016;7.800;2022-12-29T03:47:10;22.63;;;21.42;;
1975;SDS011;988;48.016;7.800;2022-12-29T03:49:38;22.73;;;21.50;;
1975;SDS011;988;48.016;7.800;2022-12-29T03:52:04;22.60;;;21.08;;
1975;SDS011;988;48.016;7.800;2022-12-29T03:54:30;22.40;;;21.10;;
1975;SDS011;988;48.016;7.800;2022-12-29T03:56:56;23.80;;;22.40;;
1975;SDS011;988;48.016;7.800;2022-12-29T03:59:22;23.80;;;22.40;;
1975;SDS011;988;48.016;7.800;2022-12-29T04:01:47;22.90;;;21.57;;
1975;SDS011;988;48.016;7.800;2022-12-29T04:04:14;21.97;;;20.60;;
1975;SDS011;988;48.016;7.800;2022-12-29T04:06:40;22.58;;;21.27;;
1975;SDS011;988;48.016;7.800;2022-12-29T04:09:06;24.48;;;22.95;;
1975;SDS011;988;48.016;7.800;2022-12-29T04:11:32;23.70;;;22.30;;
1975;SDS011;988;48.016;7.800;2022-12-29T04:13:57;23.47;;;22.17;;
1975;SDS011;988;48.016;7.800;2022-12-29T04:16:23;23.57;;;22.20;;
1975;SDS011;988;48.016;7.800;2022-12-29T04:18:48;23.10;;;21.60;;
1975;SDS011;988;48.016;7.800;2022-12-29T04:21:14;23.53;;;22.17;;
1975;SDS011;988;48.016;7.800;2022-12-29T04:23:40;24.53;;;22.93;;
1975;SDS011;988;48.016;7.800;2022-12-29T04:26:06;25.13;;;23.37;;
1975;SDS011;988;48.016;7.800;2022-12-29T04:28:32;24.60;;;23.10;;
1975;SDS011;988;48.016;7.800;2022-12-29T04:30:58;24.70;;;23.00;;
1975;SDS011;988;48.016;7.800;2022-12-29T04:33:24;24.13;;;22.73;;
1975;SDS011;988;48.016;7.800;2022-12-29T04:35:50;24.73;;;23.33;;
1975;SDS011;988;48.016;7.800;2022-12-29T04:38:18;24.30;;;22.63;;
1975;SDS011;988;48.016;7.800;2022-12-29T04:40:43;23.20;;;21.80;;
1975;SDS011;988;48.016;7.800;2022-12-29T04:43:09;22.80;;;21.50;;
1975;SDS011;988;48.016;7.800;2022-12-29T04:45:35;23.37;;;22.07;;
1975;SDS011;988;48.016;7.800;2022-12-29T04:48:01;24.10;;;22.70;;
1975;SDS011;988;48.016;7.800;2022-12-29T04:50:27;25.20;;;23.53;;
1975;SDS011;988;48.016;7.800;2022-12-29T04:52:52;25.33;;;23.33;;
1975;SDS011;988;48.016;7.800;2022-12-29T04:55:18;24.50;;;23.10;;
1975;SDS011;988;48.016;7.800;2022-12-29T04:57:44;24.03;;;22.57;;
1975;SDS011;988;48.016;7.800;2022-12-29T05:00:09;22.57;;;21.00;;
1975;SDS011;988;48.016;7.800;2022-12-29T05:02:36;23.52;;;22.10;;
1975;SDS011;988;48.016;7.800;2022-12-29T05:05:02;21.67;;;20.38;;
1975;SDS011;988;48.016;7.800;2022-12-29T05:07:28;22.40;;;21.10;;
1975;SDS011;988;48.016;7.800;2022-12-29T05:09:54;25.57;;;24.07;;
1975;SDS011;988;48.016;7.800;2022-12-29T05:12:20;23.27;;;21.77;;
1975;SDS011;988;48.016;7.800;2022-12-29T05:14:45;22.90;;;21.60;;
1975;SDS011;988;48.016;7.800;2022-12-29T05:17:11;23.33;;;21.83;;
1975;SDS011;988;48.016;7.800;2022-12-29T05:19:36;24.17;;;22.70;;
1975;SDS011;988;48.016;7.800;2022-12-29T05:22:03;22.75;;;21.23;;
1975;SDS011;988;48.016;7.800;2022-12-29T05:24:29;22.30;;;20.60;;
1975;SDS011;988;48.016;7.800;2022-12-29T05:26:54;22.47;;;21.13;;
1975;SDS011;988;48.016;7.800;2022-12-29T05:29:20;23.10;;;21.40;;
1975;SDS011;988;48.016;7.800;2022-12-29T05:31:45;23.03;;;21.70;;
1975;SDS011;988;48.016;7.800;2022-12-29T05:34:11;22.13;;;20.73;;
1975;SDS011;988;48.016;7.800;2022-12-29T05:36:37;23.00;;;21.30;;
1975;SDS011;988;48.016;7.800;2022-12-29T05:39:03;22.37;;;20.97;;
1975;SDS011;988;48.016;7.800;2022-12-29T05:41:29;22.35;;;21.05;;
1975;SDS011;988;48.016;7.800;2022-12-29T05:43:54;20.93;;;19.80;;
1975;SDS011;988;48.016;7.800;2022-12-29T05:46:20;23.67;;;22.00;;
1975;SDS011;988;48.016;7.800;2022-12-29T05:48:45;23.57;;;22.07;;
1975;SDS011;988;48.016;7.800;2022-12-29T05:51:11;23.40;;;22.00;;
1975;SDS011;988;48.016;7.800;2022-12-29T05:53:36;23.17;;;21.77;;
1975;SDS011;988;48.016;7.800;2022-12-29T05:56:02;23.17;;;21.90;;
1975;SDS011;988;48.016;7.800;2022-12-29T05:58:28;22.20;;;21.00;;
1975;SDS011;988;48.016;7.800;2022-12-29T06:00:53;21.73;;;20.53;;
1975;SDS011;988;48.016;7.800;2022-12-29T06:03:19;24.23;;;22.93;;
1975;SDS011;988;48.016;7.800;2022-12-29T06:05:45;22.67;;;21.47;;
1975;SDS011;988;48.016;7.800;2022-12-29T06:08:11;23.40;;;22.00;;
1975;SDS011;988;48.016;7.800;2022-12-29T06:10:37;22.20;;;20.90;;
1975;SDS011;988;48.016;7.800;2022-12-29T06:13:03;23.03;;;21.83;;
1975;SDS011;988;48.016;7.800;2022-12-29T06:15:30;22.23;;;21.00;;
1975;SDS011;988;48.016;7.800;2022-12-29T06:17:56;22.95;;;21.65;;
1975;SDS011;988;48.016;7.800;2022-12-29T06:20:22;21.17;;;19.97;;
1975;SDS011;988;48.016;7.800;2022-12-29T06:22:47;22.93;;;21.73;;
1975;SDS011;988;48.016;7.800;2022-12-29T06:25:14;22.50;;;21.30;;
1975;SDS011;988;48.016;7.800;2022-12-29T06:27:40;20.40;;;19.20;;
1975;SDS011;988;48.016;7.800;2022-12-29T06:30:06;20.57;;;19.37;;
1975;SDS011;988;48.016;7.800;2022-12-29T06:32:32;21.45;;;20.13;;
1975;SDS011;988;48.016;7.800;2022-12-29T06:34:58;20.40;;;19.20;;
1975;SDS011;988;48.016;7.800;2022-12-29T06:37:24;21.67;;;20.38;;
1975;SDS011;988;48.016;7.800;2022-12-29T06:39:50;22.20;;;20.90;;
1975;SDS011;988;48.016;7.800;2022-12-29T06:42:15;23.57;;;21.70;;
1975;SDS011;988;48.016;7.800;2022-12-29T06:44:41;21.17;;;19.40;;
1975;SDS011;988;48.016;7.800;2022-12-29T06:47:06;22.63;;;21.33;;
1975;SDS011;988;48.016;7.800;2022-12-29T06:49:32;23.27;;;21.87;;
1975;SDS011;988;48.016;7.800;2022-12-29T06:51:57;21.60;;;20.30;;
1975;SDS011;988;48.016;7.800;2022-12-29T06:54:25;21.70;;;20.50;;
1975;SDS011;988;48.016;7.800;2022-12-29T06:56:51;21.10;;;19.90;;
1975;SDS011;988;48.016;7.800;2022-12-29T06:59:17;21.30;;;20.00;;
1975;SDS011;988;48.016;7.800;2022-12-29T07:01:42;21.50;;;20.20;;
1975;SDS011;988;48.016;7.800;2022-12-29T07:04:08;21.17;;;20.07;;
1975;SDS011;988;48.016;7.800;2022-12-29T07:06:33;23.23;;;21.83;;
1975;SDS011;988;48.016;7.800;2022-12-29T07:08:59;22.20;;;20.73;;
1975;SDS011;988;48.016;7.800;2022-12-29T07:11:24;22.97;;;21.67;;
1975;SDS011;988;48.016;7.800;2022-12-29T07:13:50;23.37;;;21.77;;
1975;SDS011;988;48.016;7.800;2022-12-29T07:16:16;21.17;;;19.97;;
1975;SDS011;988;48.016;7.800;2022-12-29T07:18:42;21.50;;;20.10;;
1975;SDS011;988;48.016;7.800;2022-12-29T07:21:07;23.33;;;21.83;;
1975;SDS011;988;48.016;7.800;2022-12-29T07:23:33;23.17;;;21.87;;
1975;SDS011;988;48.016;7.800;2022-12-29T07:26:02;21.90;;;20.70;;
1975;SDS011;988;48.016;7.800;2022-12-29T07:28:29;22.17;;;20.63;;
1975;SDS011;988;48.016;7.800;2022-12-29T07:30:54;22.60;;;21.27;;
1975;SDS011;988;48.016;7.800;2022-12-29T07:33:20;22.37;;;20.93;;
1975;SDS011;988;48.016;7.800;2022-12-29T07:35:46;21.37;;;20.27;;
1975;SDS011;988;48.016;7.800;2022-12-29T07:38:12;23.17;;;20.93;;
1975;SDS011;988;48.016;7.800;2022-12-29T07:40:37;23.60;;;22.20;;
1975;SDS011;988;48.016;7.800;2022-12-29T07:43:03;22.67;;;21.17;;
1975;SDS011;988;48.016;7.800;2022-12-29T07:45:29;22.30;;;20.90;;
1975;SDS011;988;48.016;7.800;2022-12-29T07:47:54;22.03;;;20.73;;
1975;SDS011;988;48.016;7.800;2022-12-29T07:50:20;21.27;;;20.17;;
1975;SDS011;988;48.016;7.800;2022-12-29T07:52:46;22.67;;;21.20;;
1975;SDS011;988;48.016;7.800;2022-12-29T07:55:12;22.77;;;21.35;;
1975;SDS011;988;48.016;7.800;2022-12-29T07:57:41;22.60;;;20.98;;
1975;SDS011;988;48.016;7.800;2022-12-29T08:00:08;20.73;;;19.60;;
1975;SDS011;988;48.016;7.800;2022-12-29T08:02:35;22.47;;;20.97;;
1975;SDS011;988;48.016;7.800;2022-12-29T08:05:01;22.77;;;21.47;;
1975;SDS011;988;48.016;7.800;2022-12-29T08:07:26;22.80;;;21.00;;
1975;SDS011;988;48.016;7.800;2022-12-29T08:09:52;23.10;;;21.50;;
1975;SDS011;988;48.016;7.800;2022-12-29T08:12:18;22.17;;;20.70;;
1975;SDS011;988;48.016;7.800;2022-12-29T08:14:43;24.17;;;22.67;;
1975;SDS011;988;48.016;7.800;2022-12-29T08:17:09;23.13;;;21.83;;
1975;SDS011;988;48.016;7.800;2022-12-29T08:19:35;24.27;;;22.73;;
1975;SDS011;988;48.016;7.800;2022-12-29T08:22:01;23.20;;;21.87;;
1975;SDS011;988;48.016;7.800;2022-12-29T08:24:27;22.60;;;21.40;;
1975;SDS011;988;48.016;7.800;2022-12-29T08:26:53;21.77;;;20.57;;
1975;SDS011;988;48.016;7.800;2022-12-29T08:29:18;22.83;;;21.63;;
1975;SDS011;988;48.016;7.800;2022-12-29T08:31:45;22.63;;;21.33;;
1975;SDS011;988;48.016;7.800;2022-12-29T08:34:11;22.87;;;21.47;;
1975;SDS011;988;48.016;7.800;2022-12-29T08:36:36;22.37;;;20.97;;
1975;SDS011;988;48.016;7.800;2022-12-29T08:39:02;22.03;;;20.87;;
1975;SDS011;988;48.016;7.800;2022-12-29T08:41:28;21.70;;;20.50;;
1975;SDS011;988;48.016;7.800;2022-12-29T08:43:54;22.40;;;21.20;;
1975;SDS011;988;48.016;7.800;2022-12-29T08:46:20;23.47;;;22.17;;
1975;SDS011;988;48.016;7.800;2022-12-29T08:48:46;22.23;;;20.83;;
1975;SDS011;988;48.016;7.800;2022-12-29T08:51:11;23.67;;;22.27;;
1975;SDS011;988;48.016;7.800;2022-12-29T08:53:37;21.20;;;20.00;;
1975;SDS011;988;48.016;7.800;2022-12-29T08:56:03;23.20;;;21.90;;
1975;SDS011;988;48.016;7.800;2022-12-29T08:58:28;23.37;;;22.07;;
1975;SDS011;988;48.016;7.800;2022-12-29T09:00:55;22.90;;;21.70;;
1975;SDS011;988;48.016;7.800;2022-12-29T09:03:21;21.90;;;20.60;;
1975;SDS011;988;48.016;7.800;2022-12-29T09:05:51;23.13;;;21.80;;
1975;SDS011;988;48.016;7.800;2022-12-29T09:08:18;22.73;;;21.27;;
1975;SDS011;988;48.016;7.800;2022-12-29T09:10:44;23.67;;;22.30;;
1975;SDS011;988;48.016;7.800;2022-12-29T09:13:11;22.57;;;21.07;;
1975;SDS011;988;48.016;7.800;2022-12-29T09:15:37;24.23;;;22.60;;
1975;SDS011;988;48.016;7.800;2022-12-29T09:18:03;23.50;;;21.97;;
1975;SDS011;988;48.016;7.800;2022-12-29T09:20:29;22.57;;;21.20;;
1975;SDS011;988;48.016;7.800;2022-12-29T09:22:55;22.70;;;21.40;;
1975;SDS011;988;48.016;7.800;2022-12-29T09:25:21;22.87;;;21.43;;
1975;SDS011;988;48.016;7.800;2022-12-29T09:27:49;22.83;;;21.23;;
1975;SDS011;988;48.016;7.800;2022-12-29T09:30:18;21.80;;;20.60;;
1975;SDS011;988;48.016;7.800;2022-12-29T09:32:45;22.00;;;20.80;;
1975;SDS011;988;48.016;7.800;2022-12-29T09:35:11;23.37;;;21.63;;
1975;SDS011;988;48.016;7.800;2022-12-29T09:37:37;21.97;;;20.57;;
1975;SDS011;988;48.016;7.800;2022-12-29T09:40:04;22.63;;;21.33;;
1975;SDS011;988;48.016;7.800;2022-12-29T09:42:38;22.63;;;21.13;;
1975;SDS011;988;48.016;7.800;2022-12-29T09:47:58;22.00;;;20.60;;
1975;SDS011;988;48.016;7.800;2022-12-29T09:50:25;21.50;;;20.23;;
1975;SDS011;988;48.016;7.800;2022-12-29T09:53:20;22.10;;;20.70;;
1975;SDS011;988;48.016;7.800;2022-12-29T09:56:02;21.83;;;20.53;;
1975;SDS011;988;48.016;7.800;2022-12-29T09:58:38;21.23;;;20.03;;
1975;SDS011;988;48.016;7.800;2022-12-29T10:03:52;25.17;;;23.47;;
1975;SDS011;988;48.016;7.800;2022-12-29T10:06:22;21.30;;;20.20;;
1975;SDS011;988;48.016;7.800;2022-12-29T10:14:29;22.33;;;21.00;;
1975;SDS011;988;48.016;7.800;2022-12-29T10:25:57;21.53;;;20.33;;
1975;SDS011;988;48.016;7.800;2022-12-29T10:28:29;22.13;;;20.83;;
1975;SDS011;988;48.016;7.800;2022-12-29T10:31:13;22.90;;;21.50;;
1975;SDS011;988;48.016;7.800;2022-12-29T10:33:57;22.47;;;20.93;;
1975;SDS011;988;48.016;7.800;2022-12-29T10:36:40;23.30;;;21.90;;
1975;SDS011;988;48.016;7.800;2022-12-29T10:41:57;22.50;;;21.17;;
1975;SDS011;988;48.016;7.800;2022-12-29T10:44:34;23.47;;;22.07;;
1975;SDS011;988;48.016;7.800;2022-12-29T10:47:02;21.87;;;20.37;;
1975;SDS011;988;48.016;7.800;2022-12-29T10:49:32;22.07;;;20.57;;
1975;SDS011;988;48.016;7.800;2022-12-29T10:52:05;22.88;;;21.45;;
1975;SDS011;988;48.016;7.800;2022-12-29T10:54:36;24.10;;;22.80;;
1975;SDS011;988;48.016;7.800;2022-12-29T11:00:11;22.50;;;21.17;;
1975;SDS011;988;48.016;7.800;2022-12-29T11:03:08;23.07;;;21.27;;
1975;SDS011;988;48.016;7.800;2022-12-29T11:08:35;23.60;;;22.20;;
1975;SDS011;988;48.016;7.800;2022-12-29T11:11:07;22.57;;;20.97;;
1975;SDS011;988;48.016;7.800;2022-12-29T11:13:48;23.57;;;22.27;;
1975;SDS011;988;48.016;7.800;2022-12-29T11:16:15;23.70;;;22.30;;
1975;SDS011;988;48.016;7.800;2022-12-29T11:18:52;23.50;;;21.90;;
1975;SDS011;988;48.016;7.800;2022-12-29T11:26:28;23.97;;;22.57;;
1975;SDS011;988;48.016;7.800;2022-12-29T11:31:45;22.20;;;20.80;;
1975;SDS011;988;48.016;7.800;2022-12-29T11:34:23;22.93;;;21.47;;
1975;SDS011;988;48.016;7.800;2022-12-29T11:37:03;22.20;;;21.00;;
1975;SDS011;988;48.016;7.800;2022-12-29T11:39:35;21.10;;;19.90;;
1975;SDS011;988;48.016;7.800;2022-12-29T11:42:05;22.73;;;21.53;;
1975;SDS011;988;48.016;7.800;2022-12-29T11:44:37;22.93;;;21.60;;
1975;SDS011;988;48.016;7.800;2022-12-29T11:47:09;21.90;;;20.70;;
1975;SDS011;988;48.016;7.800;2022-12-29T11:49:54;21.30;;;20.10;;
1975;SDS011;988;48.016;7.800;2022-12-29T11:52:23;22.90;;;21.50;;
1975;SDS011;988;48.016;7.800;2022-12-29T11:54:51;22.73;;;21.17;;
1975;SDS011;988;48.016;7.800;2022-12-29T11:57:18;23.70;;;22.40;;
1975;SDS011;988;48.016;7.800;2022-12-29T11:59:52;22.87;;;21.57;;
1975;SDS011;988;48.016;7.800;2022-12-29T12:04:46;23.20;;;22.00;;
1975;SDS011;988;48.016;7.800;2022-12-29T12:07:18;22.77;;;21.43;;
1975;SDS011;988;48.016;7.800;2022-12-29T12:10:01;22.07;;;20.73;;
1975;SDS011;988;48.016;7.800;2022-12-29T12:12:32;21.33;;;20.13;;
1975;SDS011;988;48.016;7.800;2022-12-29T12:15:05;21.27;;;20.00;;
1975;SDS011;988;48.016;7.800;2022-12-29T12:17:47;20.67;;;19.47;;
1975;SDS011;988;48.016;7.800;2022-12-29T12:26:11;22.00;;;20.50;;
1975;SDS011;988;48.016;7.800;2022-12-29T12:28:55;21.57;;;20.37;;
1975;SDS011;988;48.016;7.800;2022-12-29T12:31:43;22.90;;;21.40;;
1975;SDS011;988;48.016;7.800;2022-12-29T12:34:19;21.60;;;20.30;;
1975;SDS011;988;48.016;7.800;2022-12-29T12:37:02;21.83;;;20.73;;
1975;SDS011;988;48.016;7.800;2022-12-29T12:48:40;21.83;;;20.63;;
1975;SDS011;988;48.016;7.800;2022-12-29T12:57:06;22.47;;;21.07;;
1975;SDS011;988;48.016;7.800;2022-12-29T13:05:12;23.23;;;21.83;;
1975;SDS011;988;48.016;7.800;2022-12-29T13:08:22;23.10;;;21.70;;
1975;SDS011;988;48.016;7.800;2022-12-29T13:19:47;23.27;;;21.77;;
1975;SDS011;988;48.016;7.800;2022-12-29T13:25:13;22.50;;;21.30;;
1975;SDS011;988;48.016;7.800;2022-12-29T13:28:02;23.27;;;21.47;;
1975;SDS011;988;48.016;7.800;2022-12-29T13:36:20;21.33;;;20.07;;
1975;SDS011;988;48.016;7.800;2022-12-29T13:41:52;21.47;;;19.93;;
1975;SDS011;988;48.016;7.800;2022-12-29T13:49:47;20.60;;;19.10;;
1975;SDS011;988;48.016;7.800;2022-12-29T13:55:17;20.60;;;19.27;;
1975;SDS011;988;48.016;7.800;2022-12-29T14:00:28;22.47;;;20.73;;
1975;SDS011;988;48.016;7.800;2022-12-29T14:06:14;21.53;;;20.23;;
1975;SDS011;988;48.016;7.800;2022-12-29T14:08:44;21.60;;;20.10;;
1975;SDS011;988;48.016;7.800;2022-12-29T14:11:11;20.60;;;19.30;;
1975;SDS011;988;48.016;7.800;2022-12-29T14:13:39;22.03;;;20.63;;
1975;SDS011;988;48.016;7.800;2022-12-29T14:16:07;22.30;;;20.73;;
1975;SDS011;988;48.016;7.800;2022-12-29T14:18:48;22.25;;;20.83;;
1975;SDS011;988;48.016;7.800;2022-12-29T14:23:43;22.15;;;20.85;;
1975;SDS011;988;48.016;7.800;2022-12-29T14:26:11;20.63;;;19.43;;
1975;SDS011;988;48.016;7.800;2022-12-29T14:31:04;22.45;;;21.15;;
1975;SDS011;988;48.016;7.800;2022-12-29T14:36:37;21.48;;;20.17;;
1975;SDS011;988;48.016;7.800;2022-12-29T14:44:47;22.13;;;20.87;;
1975;SDS011;988;48.016;7.800;2022-12-29T14:47:22;23.10;;;21.70;;
1975;SDS011;988;48.016;7.800;2022-12-29T14:49:56;23.30;;;21.80;;
1975;SDS011;988;48.016;7.800;2022-12-29T14:52:29;22.77;;;21.27;;
1975;SDS011;988;48.016;7.800;2022-12-29T14:57:45;22.43;;;21.13;;
1975;SDS011;988;48.016;7.800;2022-12-29T15:00:15;24.50;;;22.80;;
1975;SDS011;988;48.016;7.800;2022-12-29T15:02:48;25.57;;;23.77;;
1975;SDS011;988;48.016;7.800;2022-12-29T15:05:25;25.60;;;23.63;;
1975;SDS011;988;48.016;7.800;2022-12-29T15:07:56;24.55;;;23.05;;
1975;SDS011;988;48.016;7.800;2022-12-29T15:10:23;24.23;;;22.92;;
1975;SDS011;988;48.016;7.800;2022-12-29T15:12:54;22.75;;;21.35;;
1975;SDS011;988;48.016;7.800;2022-12-29T15:17:50;22.35;;;21.05;;
1975;SDS011;988;48.016;7.800;2022-12-29T15:22:56;22.40;;;20.85;;
1975;SDS011;988;48.016;7.800;2022-12-29T15:25:25;24.13;;;22.63;;
1975;SDS011;988;48.016;7.800;2022-12-29T15:27:52;23.23;;;21.80;;
1975;SDS011;988;48.016;7.800;2022-12-29T15:30:20;22.88;;;21.50;;
1975;SDS011;988;48.016;7.800;2022-12-29T15:32:46;22.87;;;21.23;;
1975;SDS011;988;48.016;7.800;2022-12-29T15:35:26;22.50;;;21.20;;
1975;SDS011;988;48.016;7.800;2022-12-29T15:38:00;23.50;;;22.02;;
1975;SDS011;988;48.016;7.800;2022-12-29T15:40:38;22.35;;;20.88;;
1975;SDS011;988;48.016;7.800;2022-12-29T15:45:37;23.63;;;21.90;;
1975;SDS011;988;48.016;7.800;2022-12-29T15:48:03;22.98;;;21.27;;
1975;SDS011;988;48.016;7.800;2022-12-29T15:50:32;22.00;;;20.55;;
1975;SDS011;988;48.016;7.800;2022-12-29T15:53:00;21.90;;;20.60;;
1975;SDS011;988;48.016;7.800;2022-12-29T15:55:31;23.10;;;21.45;;
1975;SDS011;988;48.016;7.800;2022-12-29T15:58:01;22.20;;;20.95;;
1975;SDS011;988;48.016;7.800;2022-12-29T16:00:30;23.17;;;21.58;;
1975;SDS011;988;48.016;7.800;2022-12-29T16:02:58;22.60;;;21.38;;
1975;SDS011;988;48.016;7.800;2022-12-29T16:05:36;23.67;;;21.73;;
1975;SDS011;988;48.016;7.800;2022-12-29T16:08:04;23.35;;;21.67;;
1975;SDS011;988;48.016;7.800;2022-12-29T16:10:53;22.25;;;20.95;;
1975;SDS011;988;48.016;7.800;2022-12-29T16:13:25;22.50;;;21.10;;
1975;SDS011;988;48.016;7.800;2022-12-29T16:15:56;23.67;;;22.17;;
1975;SDS011;988;48.016;7.800;2022-12-29T16:18:28;21.95;;;20.70;;
1975;SDS011;988;48.016;7.800;2022-12-29T16:20:59;22.55;;;21.13;;
1975;SDS011;988;48.016;7.800;2022-12-29T16:23:25;21.00;;;19.27;;
1975;SDS011;988;48.016;7.800;2022-12-29T16:25:53;22.42;;;20.95;;
1975;SDS011;988;48.016;7.800;2022-12-29T16:31:25;22.10;;;20.45;;
1975;SDS011;988;48.016;7.800;2022-12-29T16:39:53;20.73;;;19.58;;
1975;SDS011;988;48.016;7.800;2022-12-29T16:47:45;19.40;;;18.35;;
1975;SDS011;988;48.016;7.800;2022-12-29T16:50:13;21.80;;;20.40;;
1975;SDS011;988;48.016;7.800;2022-12-29T16:52:50;22.33;;;20.48;;
1975;SDS011;988;48.016;7.800;2022-12-29T16:55:17;22.02;;;20.73;;
1975;SDS011;988;48.016;7.800;2022-12-29T16:57:44;19.65;;;18.65;;
1975;SDS011;988;48.016;7.800;2022-12-29T17:00:18;21.00;;;19.60;;
1975;SDS011;988;48.016;7.800;2022-12-29T17:02:46;21.40;;;20.27;;
1975;SDS011;988;48.016;7.800;2022-12-29T17:05:14;19.70;;;18.70;;
1975;SDS011;988;48.016;7.800;2022-12-29T17:07:41;19.75;;;18.70;;
1975;SDS011;988;48.016;7.800;2022-12-29T17:10:07;18.00;;;17.00;;
1975;SDS011;988;48.016;7.800;2022-12-29T17:12:34;19.98;;;18.73;;
1975;SDS011;988;48.016;7.800;2022-12-29T17:15:01;19.80;;;18.70;;
1975;SDS011;988;48.016;7.800;2022-12-29T17:17:49;18.85;;;17.65;;
1975;SDS011;988;48.016;7.800;2022-12-29T17:20:29;17.25;;;16.35;;
1975;SDS011;988;48.016;7.800;2022-12-29T17:22:55;18.00;;;17.10;;
1975;SDS011;988;48.016;7.800;2022-12-29T17:25:26;18.38;;;17.13;;
1975;SDS011;988;48.016;7.800;2022-12-29T17:28:02;17.02;;;15.93;;
1975;SDS011;988;48.016;7.800;2022-12-29T17:30:31;17.20;;;16.10;;
1975;SDS011;988;48.016;7.800;2022-12-29T17:33:00;16.80;;;15.77;;
1975;SDS011;988;48.016;7.800;2022-12-29T17:35:29;16.50;;;15.43;;
1975;SDS011;988;48.016;7.800;2022-12-29T17:37:54;21.90;;;20.10;;
1975;SDS011;988;48.016;7.800;2022-12-29T17:40:24;15.77;;;14.70;;
1975;SDS011;988;48.016;7.800;2022-12-29T17:42:53;16.67;;;15.68;;
1975;SDS011;988;48.016;7.800;2022-12-29T17:45:22;15.57;;;14.68;;
1975;SDS011;988;48.016;7.800;2022-12-29T17:47:55;17.67;;;16.23;;
1975;SDS011;988;48.016;7.800;2022-12-29T17:50:24;15.18;;;14.35;;
1975;SDS011;988;48.016;7.800;2022-12-29T17:52:55;15.45;;;14.57;;
1975;SDS011;988;48.016;7.800;2022-12-29T17:55:25;17.17;;;16.23;;
1975;SDS011;988;48.016;7.800;2022-12-29T17:57:51;17.40;;;16.40;;
1975;SDS011;988;48.016;7.800;2022-12-29T18:00:21;18.33;;;17.30;;
1975;SDS011;988;48.016;7.800;2022-12-29T18:02:48;18.33;;;17.30;;
1975;SDS011;988;48.016;7.800;2022-12-29T18:05:16;18.00;;;16.92;;
1975;SDS011;988;48.016;7.800;2022-12-29T18:07:45;20.17;;;18.77;;
1975;SDS011;988;48.016;7.800;2022-12-29T18:10:10;19.70;;;18.70;;
1975;SDS011;988;48.016;7.800;2022-12-29T18:12:40;18.73;;;17.53;;
1975;SDS011;988;48.016;7.800;2022-12-29T18:15:15;20.17;;;18.88;;
1975;SDS011;988;48.016;7.800;2022-12-29T18:17:49;20.70;;;19.50;;